Reklama

Seznam meteostanic a jejich METAR

Vyhledat místa podle abecedy:
A B C D E F G H I J K L M N O P Q R S T U V W X Y Z

Filtrovat:

ID stanice:
a/nebo
Název místa (fulltext):
 
Místo (ID)Naposledy načteno 
Ústí nad Labem - Kočkov (Usti n/L) 07.04.2020 23:00 UTC Zobrazit data
Místo: Ústí nad Labem - Kočkov
Teplota: 12 °C (pocitová: 7.6 °C)
Vítr: 5 m/s z(e) 70°
Počasí:
Dohlednost: 25 km
Zákl. oblačnosti: N/A
Vlhkost: 63%
Ústí nad Orlicí (Usti n/O) 07.04.2020 23:00 UTC Zobrazit data
Místo: Ústí nad Orlicí
Teplota: 5 °C (pocitová: 0.5 °C)
Vítr: 2 m/s z(e) 50°
Počasí:
Dohlednost: 19 km
Zákl. oblačnosti: N/A
Vlhkost: 61%
Ulaanbaatar (ZMUB) 20.02.2019 12:00 UTC Zobrazit METAR
ZMUB 201200Z CAVOK M14/M25 Q1021 NOSIG RMK QFE657.8 33
Uvea Island (NLWW) 07.04.2020 23:00 UTC Zobrazit METAR
NLWW 072300Z 01009KT 340V050 9999 SCT025 SCT130 31/26 Q1008 TEMPO 4000 SHRA BKN012 FEW012CB
Uzhhorod (UKLU) Zatím nenačteno  
Reklama

Počasí na Váš email

Emaily jsou bez reklamy a bez spamu



Odhlásit newsletter

Reklama


Lunární kalendář

  • 15.04.
  • 23.04.
  • 30.04.
  • 07.05.





Vyhledat na internetu:
Reklama